Huntington, West Virginia
Current Conditions -  °F | °C
As of 1:51 PM on Thursday 18 Dec 2014 (Local Time) from KHTS Reporting Station
Overcast Overcast  
Wind Chill: 27°   Ceiling: 2400
Heat Index: 32°   Visibility: 10mi
Dew Point: 22°   Wind: 5mph
Humidity: 66%   Direction: 340°NNW
Pressure: 30.2"   Gusts: NA
Location:  38.42°N, 82.44°W
Report Text: KHTS 181851Z 34004KT 10SM OVC024 00/M06 A3020 RMK AO2 PRESRR SLP234 T00001056
Loading
Personal Weather Stations






























Interactive Weather Map New forecast layout! Learn more

10-Day Weather Forecast

Advertisements
Track Severe Weather on mobile